Jilin, China
Current Conditions -  °F | °C
As of 2:00 AM on Sunday 23 Nov 2014 (Local Time) from ZYCC Reporting Station
Clear Clear  
Wind Chill: 13°   Ceiling: Unl
Heat Index: 19°   Visibility: 6mi
Dew Point: 12°   Wind: 4mph
Humidity: 74%   Direction: 180°S
Pressure: 30.3"   Gusts: NA
Location:  43.85°N, 126.55°E
Report Text: ZYCC 221800Z 18002MPS CAVOK M07/M11 Q1026 NOSIG
Loading
Personal Weather Stations






























Interactive Weather Map New forecast layout! Learn more

10-Day Weather Forecast

Advertisements
Track Severe Weather on mobile